sensor_id;sensor_type;location;lat;lon;timestamp;pressure;altitude;pressure_sealevel;temperature
71640;BMP280;60912;48.968;10.124;2023-02-28T00:01:33;97232.13;;;-1.46
71640;BMP280;60912;48.968;10.124;2023-02-28T00:03:58;97226.31;;;-1.45
71640;BMP280;60912;48.968;10.124;2023-02-28T00:06:24;97232.13;;;-1.46
71640;BMP280;60912;48.968;10.124;2023-02-28T00:08:50;97223.28;;;-1.47
71640;BMP280;60912;48.968;10.124;2023-02-28T00:11:15;97232.53;;;-1.57
71640;BMP280;60912;48.968;10.124;2023-02-28T00:13:43;97228.31;;;-1.58
71640;BMP280;60912;48.968;10.124;2023-02-28T00:16:18;97222.28;;;-1.62
71640;BMP280;60912;48.968;10.124;2023-02-28T00:18:44;97231.03;;;-1.58
71640;BMP280;60912;48.968;10.124;2023-02-28T00:21:12;97220.53;;;-1.56
71640;BMP280;60912;48.968;10.124;2023-02-28T00:23:38;97219.34;;;-1.55
71640;BMP280;60912;48.968;10.124;2023-02-28T00:26:04;97225.50;;;-1.54
71640;BMP280;60912;48.968;10.124;2023-02-28T00:28:30;97224.34;;;-1.44
71640;BMP280;60912;48.968;10.124;2023-02-28T00:30:55;97217.56;;;-1.49
71640;BMP280;60912;48.968;10.124;2023-02-28T00:33:22;97226.09;;;-1.50
71640;BMP280;60912;48.968;10.124;2023-02-28T00:35:48;97219.06;;;-1.48
71640;BMP280;60912;48.968;10.124;2023-02-28T00:38:14;97218.56;;;-1.55
71640;BMP280;60912;48.968;10.124;2023-02-28T00:40:43;97222.03;;;-1.55
71640;BMP280;60912;48.968;10.124;2023-02-28T00:43:08;97222.34;;;-1.53
71640;BMP280;60912;48.968;10.124;2023-02-28T00:45:34;97231.06;;;-1.49
71640;BMP280;60912;48.968;10.124;2023-02-28T00:48:00;97223.22;;;-1.56
71640;BMP280;60912;48.968;10.124;2023-02-28T00:50:25;97220.47;;;-1.65
71640;BMP280;60912;48.968;10.124;2023-02-28T00:52:51;97224.97;;;-1.62
71640;BMP280;60912;48.968;10.124;2023-02-28T00:55:16;97231.28;;;-1.65
71640;BMP280;60912;48.968;10.124;2023-02-28T00:57:42;97226.09;;;-1.72
71640;BMP280;60912;48.968;10.124;2023-02-28T01:00:09;97218.63;;;-1.68
71640;BMP280;60912;48.968;10.124;2023-02-28T01:02:36;97213.28;;;-1.59
71640;BMP280;60912;48.968;10.124;2023-02-28T01:05:01;97218.56;;;-1.55
71640;BMP280;60912;48.968;10.124;2023-02-28T01:07:27;97214.47;;;-1.60
71640;BMP280;60912;48.968;10.124;2023-02-28T01:09:58;97208.44;;;-1.64
71640;BMP280;60912;48.968;10.124;2023-02-28T01:12:33;97211.41;;;-1.71
71640;BMP280;60912;48.968;10.124;2023-02-28T01:15:00;97207.19;;;-1.72
71640;BMP280;60912;48.968;10.124;2023-02-28T01:17:26;97213.16;;;-1.77
71640;BMP280;60912;48.968;10.124;2023-02-28T01:23:39;97206.28;;;-1.78
71640;BMP280;60912;48.968;10.124;2023-02-28T01:29:33;97212.09;;;-1.80
71640;BMP280;60912;48.968;10.124;2023-02-28T01:35:04;97200.53;;;-1.80
71640;BMP280;60912;48.968;10.124;2023-02-28T01:37:42;97211.03;;;-1.82
71640;BMP280;60912;48.968;10.124;2023-02-28T01:40:23;97190.94;;;-1.81
71640;BMP280;60912;48.968;10.124;2023-02-28T01:43:10;97200.88;;;-1.78
71640;BMP280;60912;48.968;10.124;2023-02-28T01:46:20;97209.91;;;-1.72
71640;BMP280;60912;48.968;10.124;2023-02-28T01:49:09;97197.09;;;-1.81
71640;BMP280;60912;48.968;10.124;2023-02-28T01:52:07;97202.84;;;-1.91
71640;BMP280;60912;48.968;10.124;2023-02-28T01:54:58;97191.28;;;-1.92
71640;BMP280;60912;48.968;10.124;2023-02-28T01:57:46;97189.94;;;-1.87
71640;BMP280;60912;48.968;10.124;2023-02-28T02:03:45;97189.44;;;-1.95
71640;BMP280;60912;48.968;10.124;2023-02-28T02:06:21;97190.53;;;-1.92
71640;BMP280;60912;48.968;10.124;2023-02-28T02:09:11;97185.56;;;-1.94
71640;BMP280;60912;48.968;10.124;2023-02-28T02:15:38;97184.81;;;-1.94
71640;BMP280;60912;48.968;10.124;2023-02-28T02:36:43;97174.16;;;-2.10
71640;BMP280;60912;48.968;10.124;2023-02-28T02:43:18;97175.66;;;-2.09
71640;BMP280;60912;48.968;10.124;2023-02-28T02:45:57;97177.63;;;-2.10
71640;BMP280;60912;48.968;10.124;2023-02-28T02:48:33;97175.13;;;-2.04
71640;BMP280;60912;48.968;10.124;2023-02-28T02:51:01;97177.81;;;-2.04
71640;BMP280;60912;48.968;10.124;2023-02-28T02:54:14;97176.50;;;-2.00
71640;BMP280;60912;48.968;10.124;2023-02-28T02:56:48;97179.19;;;-2.00
71640;BMP280;60912;48.968;10.124;2023-02-28T02:59:35;97176.94;;;-2.01
71640;BMP280;60912;48.968;10.124;2023-02-28T03:02:06;97182.03;;;-2.03
71640;BMP280;60912;48.968;10.124;2023-02-28T03:04:36;97178.06;;;-2.12
71640;BMP280;60912;48.968;10.124;2023-02-28T03:07:14;97180.81;;;-2.02
71640;BMP280;60912;48.968;10.124;2023-02-28T03:19:23;97178.06;;;-2.12
71640;BMP280;60912;48.968;10.124;2023-02-28T03:25:24;97169.72;;;-2.04
71640;BMP280;60912;48.968;10.124;2023-02-28T03:28:28;97180.09;;;-2.03
71640;BMP280;60912;48.968;10.124;2023-02-28T03:31:52;97165.00;;;-2.13
71640;BMP280;60912;48.968;10.124;2023-02-28T03:34:55;97172.97;;;-2.09
71640;BMP280;60912;48.968;10.124;2023-02-28T03:40:56;97178.22;;;-1.93
71640;BMP280;60912;48.968;10.124;2023-02-28T03:43:55;97174.06;;;-2.07
71640;BMP280;60912;48.968;10.124;2023-02-28T03:46:39;97174.16;;;-2.10
71640;BMP280;60912;48.968;10.124;2023-02-28T03:49:30;97181.66;;;-1.93
71640;BMP280;60912;48.968;10.124;2023-02-28T03:52:12;97179.28;;;-1.91
71640;BMP280;60912;48.968;10.124;2023-02-28T03:54:50;97185.88;;;-1.92
71640;BMP280;60912;48.968;10.124;2023-02-28T03:57:59;97194.41;;;-1.93
71640;BMP280;60912;48.968;10.124;2023-02-28T04:00:38;97181.47;;;-1.98
71640;BMP280;60912;48.968;10.124;2023-02-28T04:03:04;97188.78;;;-1.86
71640;BMP280;60912;48.968;10.124;2023-02-28T04:06:00;97184.03;;;-1.95
71640;BMP280;60912;48.968;10.124;2023-02-28T04:08:41;97185.66;;;-1.85
71640;BMP280;60912;48.968;10.124;2023-02-28T04:13:51;97193.44;;;-1.99
71640;BMP280;60912;48.968;10.124;2023-02-28T04:16:19;97191.81;;;-1.97
71640;BMP280;60912;48.968;10.124;2023-02-28T04:19:12;97194.41;;;-1.93
71640;BMP280;60912;48.968;10.124;2023-02-28T04:22:04;97198.94;;;-1.90
71640;BMP280;60912;48.968;10.124;2023-02-28T04:24:56;97205.81;;;-1.89
71640;BMP280;60912;48.968;10.124;2023-02-28T04:27:21;97198.94;;;-1.90
71640;BMP280;60912;48.968;10.124;2023-02-28T04:29:46;97196.53;;;-1.88
71640;BMP280;60912;48.968;10.124;2023-02-28T04:32:12;97192.88;;;-1.82
71640;BMP280;60912;48.968;10.124;2023-02-28T04:34:38;97192.03;;;-1.91
71640;BMP280;60912;48.968;10.124;2023-02-28T04:37:03;97190.19;;;-1.94
71640;BMP280;60912;48.968;10.124;2023-02-28T04:39:29;97197.44;;;-1.91
71640;BMP280;60912;48.968;10.124;2023-02-28T04:41:55;97197.72;;;-1.89
71640;BMP280;60912;48.968;10.124;2023-02-28T04:44:20;97207.72;;;-1.99
71640;BMP280;60912;48.968;10.124;2023-02-28T04:46:49;97196.34;;;-1.81
71640;BMP280;60912;48.968;10.124;2023-02-28T04:49:15;97189.72;;;-1.80
71640;BMP280;60912;48.968;10.124;2023-02-28T04:51:41;97197.09;;;-1.81
71640;BMP280;60912;48.968;10.124;2023-02-28T04:54:12;97203.25;;;-1.80
71640;BMP280;60912;48.968;10.124;2023-02-28T04:56:41;97206.50;;;-1.85
71640;BMP280;60912;48.968;10.124;2023-02-28T04:59:06;97206.94;;;-1.99
71640;BMP280;60912;48.968;10.124;2023-02-28T05:01:33;97202.19;;;-1.95
71640;BMP280;60912;48.968;10.124;2023-02-28T05:04:01;97198.53;;;-2.01
71640;BMP280;60912;48.968;10.124;2023-02-28T05:06:28;97206.09;;;-1.96
71640;BMP280;60912;48.968;10.124;2023-02-28T05:08:55;97200.78;;;-2.00
71640;BMP280;60912;48.968;10.124;2023-02-28T05:11:23;97206.63;;;-2.01
71640;BMP280;60912;48.968;10.124;2023-02-28T05:13:50;97196.19;;;-2.12
71640;BMP280;60912;48.968;10.124;2023-02-28T05:16:16;97203.88;;;-2.10
71640;BMP280;60912;48.968;10.124;2023-02-28T05:18:46;97195.00;;;-2.11
71640;BMP280;60912;48.968;10.124;2023-02-28T05:24:11;97201.22;;;-2.01
71640;BMP280;60912;48.968;10.124;2023-02-28T05:26:39;97207.00;;;-2.12
71640;BMP280;60912;48.968;10.124;2023-02-28T05:29:05;97205.91;;;-2.15
71640;BMP280;60912;48.968;10.124;2023-02-28T05:31:31;97206.44;;;-2.07
71640;BMP280;60912;48.968;10.124;2023-02-28T05:33:56;97198.91;;;-2.12
71640;BMP280;60912;48.968;10.124;2023-02-28T05:36:22;97212.94;;;-2.04
71640;BMP280;60912;48.968;10.124;2023-02-28T05:38:49;97212.97;;;-2.17
71640;BMP280;60912;48.968;10.124;2023-02-28T05:41:15;97210.53;;;-2.02
71640;BMP280;60912;48.968;10.124;2023-02-28T05:43:40;97209.34;;;-2.01
71640;BMP280;60912;48.968;10.124;2023-02-28T05:46:07;97208.47;;;-1.98
71640;BMP280;60912;48.968;10.124;2023-02-28T05:48:34;97210.84;;;-2.00
71640;BMP280;60912;48.968;10.124;2023-02-28T05:51:00;97208.84;;;-2.09
71640;BMP280;60912;48.968;10.124;2023-02-28T05:53:26;97210.66;;;-2.06
71640;BMP280;60912;48.968;10.124;2023-02-28T05:55:52;97211.09;;;-2.07
71640;BMP280;60912;48.968;10.124;2023-02-28T05:58:20;97216.25;;;-2.00
71640;BMP280;60912;48.968;10.124;2023-02-28T06:00:47;97219.16;;;-1.95
71640;BMP280;60912;48.968;10.124;2023-02-28T06:03:13;97221.41;;;-1.93
71640;BMP280;60912;48.968;10.124;2023-02-28T06:05:38;97215.38;;;-1.97
71640;BMP280;60912;48.968;10.124;2023-02-28T06:08:04;97222.78;;;-1.89
71640;BMP280;60912;48.968;10.124;2023-02-28T06:10:32;97213.41;;;-1.84
71640;BMP280;60912;48.968;10.124;2023-02-28T06:13:01;97218.91;;;-1.88
71640;BMP280;60912;48.968;10.124;2023-02-28T06:15:37;97220.22;;;-1.92
71640;BMP280;60912;48.968;10.124;2023-02-28T06:18:03;97212.53;;;-1.81
71640;BMP280;60912;48.968;10.124;2023-02-28T06:20:29;97217.94;;;-1.81
71640;BMP280;60912;48.968;10.124;2023-02-28T06:22:56;97223.53;;;-1.75
71640;BMP280;60912;48.968;10.124;2023-02-28T06:25:28;97221.47;;;-1.71
71640;BMP280;60912;48.968;10.124;2023-02-28T06:27:53;97229.06;;;-1.57
71640;BMP280;60912;48.968;10.124;2023-02-28T06:30:19;97237.56;;;-1.68
71640;BMP280;60912;48.968;10.124;2023-02-28T06:32:49;97237.06;;;-1.54
71640;BMP280;60912;48.968;10.124;2023-02-28T06:35:14;97238.81;;;-1.60
71640;BMP280;60912;48.968;10.124;2023-02-28T06:37:40;97238.81;;;-1.16
71640;BMP280;60912;48.968;10.124;2023-02-28T06:40:07;97244.38;;;-1.11
71640;BMP280;60912;48.968;10.124;2023-02-28T06:42:33;97246.22;;;-0.77
71640;BMP280;60912;48.968;10.124;2023-02-28T06:44:59;97251.38;;;-0.60
71640;BMP280;60912;48.968;10.124;2023-02-28T06:47:27;97245.06;;;-0.66
71640;BMP280;60912;48.968;10.124;2023-02-28T06:50:31;97253.94;;;-0.26
71640;BMP280;60912;48.968;10.124;2023-02-28T06:53:07;97254.56;;;0.33
71640;BMP280;60912;48.968;10.124;2023-02-28T06:55:41;97248.81;;;0.49
71640;BMP280;60912;48.968;10.124;2023-02-28T06:58:08;97256.88;;;1.37
71640;BMP280;60912;48.968;10.124;2023-02-28T07:00:45;97253.25;;;2.11
71640;BMP280;60912;48.968;10.124;2023-02-28T07:03:11;97254.38;;;2.87
71640;BMP280;60912;48.968;10.124;2023-02-28T07:05:38;97256.84;;;3.06
71640;BMP280;60912;48.968;10.124;2023-02-28T07:08:04;97250.47;;;3.09
71640;BMP280;60912;48.968;10.124;2023-02-28T07:10:42;97245.03;;;2.94
71640;BMP280;60912;48.968;10.124;2023-02-28T07:13:11;97255.50;;;3.30
71640;BMP280;60912;48.968;10.124;2023-02-28T07:15:37;97252.34;;;3.17
71640;BMP280;60912;48.968;10.124;2023-02-28T07:18:02;97254.81;;;2.56
71640;BMP280;60912;48.968;10.124;2023-02-28T07:20:28;97267.69;;;2.56
71640;BMP280;60912;48.968;10.124;2023-02-28T07:23:17;97258.00;;;2.40
71640;BMP280;60912;48.968;10.124;2023-02-28T07:25:49;97270.31;;;2.50
71640;BMP280;60912;48.968;10.124;2023-02-28T07:28:53;97271.69;;;2.46
71640;BMP280;60912;48.968;10.124;2023-02-28T07:31:19;97269.56;;;1.88
71640;BMP280;60912;48.968;10.124;2023-02-28T07:33:45;97278.00;;;1.66
71640;BMP280;60912;48.968;10.124;2023-02-28T07:36:14;97277.69;;;1.73
71640;BMP280;60912;48.968;10.124;2023-02-28T07:38:47;97275.22;;;1.51
71640;BMP280;60912;48.968;10.124;2023-02-28T07:41:21;97287.28;;;1.17
71640;BMP280;60912;48.968;10.124;2023-02-28T07:43:47;97285.25;;;0.85
71640;BMP280;60912;48.968;10.124;2023-02-28T07:46:15;97294.91;;;0.67
71640;BMP280;60912;48.968;10.124;2023-02-28T07:49:01;97293.72;;;0.50
71640;BMP280;60912;48.968;10.124;2023-02-28T07:51:30;97286.94;;;0.18
71640;BMP280;60912;48.968;10.124;2023-02-28T07:53:55;97291.28;;;0.43
71640;BMP280;60912;48.968;10.124;2023-02-28T07:56:21;97300.06;;;0.29
71640;BMP280;60912;48.968;10.124;2023-02-28T07:58:46;97294.31;;;0.36
71640;BMP280;60912;48.968;10.124;2023-02-28T08:01:12;97294.75;;;0.44
71640;BMP280;60912;48.968;10.124;2023-02-28T08:03:43;97286.78;;;0.40
71640;BMP280;60912;48.968;10.124;2023-02-28T08:06:20;97283.16;;;0.61
71640;BMP280;60912;48.968;10.124;2023-02-28T08:08:46;97289.47;;;0.77
71640;BMP280;60912;48.968;10.124;2023-02-28T08:11:11;97286.75;;;0.77
71640;BMP280;60912;48.968;10.124;2023-02-28T08:13:37;97295.50;;;0.71
71640;BMP280;60912;48.968;10.124;2023-02-28T08:16:02;97293.38;;;0.66
71640;BMP280;60912;48.968;10.124;2023-02-28T08:18:28;97293.69;;;0.78
71640;BMP280;60912;48.968;10.124;2023-02-28T08:20:58;97288.25;;;0.96
71640;BMP280;60912;48.968;10.124;2023-02-28T08:23:24;97292.31;;;0.91
71640;BMP280;60912;48.968;10.124;2023-02-28T08:25:59;97287.38;;;0.62
71640;BMP280;60912;48.968;10.124;2023-02-28T08:28:24;97287.53;;;0.59
71640;BMP280;60912;48.968;10.124;2023-02-28T08:30:53;97298.84;;;0.48
71640;BMP280;60912;48.968;10.124;2023-02-28T08:33:18;97285.25;;;0.39
71640;BMP280;60912;48.968;10.124;2023-02-28T08:35:44;97290.38;;;0.64
71640;BMP280;60912;48.968;10.124;2023-02-28T08:38:09;97288.38;;;0.92
71640;BMP280;60912;48.968;10.124;2023-02-28T08:40:37;97293.06;;;0.92
71640;BMP280;60912;48.968;10.124;2023-02-28T08:43:03;97287.81;;;0.79
71640;BMP280;60912;48.968;10.124;2023-02-28T08:45:28;97291.75;;;0.69
71640;BMP280;60912;48.968;10.124;2023-02-28T08:47:56;97281.03;;;0.75
71640;BMP280;60912;48.968;10.124;2023-02-28T08:50:22;97284.19;;;0.82
71640;BMP280;60912;48.968;10.124;2023-02-28T08:52:48;97288.50;;;1.07
71640;BMP280;60912;48.968;10.124;2023-02-28T08:55:15;97288.53;;;0.89
71640;BMP280;60912;48.968;10.124;2023-02-28T09:00:59;97296.69;;;0.89
71640;BMP280;60912;48.968;10.124;2023-02-28T09:03:24;97294.16;;;0.58
71640;BMP280;60912;48.968;10.124;2023-02-28T09:05:58;97290.75;;;1.18
71640;BMP280;60912;48.968;10.124;2023-02-28T09:08:25;97286.78;;;1.61
71640;BMP280;60912;48.968;10.124;2023-02-28T09:10:51;97295.41;;;1.59
71640;BMP280;60912;48.968;10.124;2023-02-28T09:13:17;97299.59;;;1.27
71640;BMP280;60912;48.968;10.124;2023-02-28T09:15:43;97284.03;;;1.70
71640;BMP280;60912;48.968;10.124;2023-02-28T09:18:09;97290.25;;;1.61
71640;BMP280;60912;48.968;10.124;2023-02-28T09:20:37;97294.03;;;1.88
71640;BMP280;60912;48.968;10.124;2023-02-28T09:23:03;97285.88;;;1.88
71640;BMP280;60912;48.968;10.124;2023-02-28T09:25:28;97312.94;;;1.82
71640;BMP280;60912;48.968;10.124;2023-02-28T09:27:53;97321.41;;;2.08
71640;BMP280;60912;48.968;10.124;2023-02-28T09:30:19;97307.44;;;1.67
71640;BMP280;60912;48.968;10.124;2023-02-28T09:32:44;97292.31;;;1.75
71640;BMP280;60912;48.968;10.124;2023-02-28T09:35:23;97296.47;;;2.09
71640;BMP280;60912;48.968;10.124;2023-02-28T09:37:50;97300.56;;;2.29
71640;BMP280;60912;48.968;10.124;2023-02-28T09:40:22;97293.59;;;2.81
71640;BMP280;60912;48.968;10.124;2023-02-28T09:42:51;97292.47;;;2.58
71640;BMP280;60912;48.968;10.124;2023-02-28T09:45:31;97297.44;;;3.04
71640;BMP280;60912;48.968;10.124;2023-02-28T09:48:21;97311.69;;;2.31
71640;BMP280;60912;48.968;10.124;2023-02-28T09:50:51;97312.50;;;2.46
71640;BMP280;60912;48.968;10.124;2023-02-28T09:53:37;97298.66;;;2.20
71640;BMP280;60912;48.968;10.124;2023-02-28T09:56:09;97295.88;;;2.29
71640;BMP280;60912;48.968;10.124;2023-02-28T10:04:12;97300.53;;;2.52
71640;BMP280;60912;48.968;10.124;2023-02-28T10:06:52;97323.44;;;2.75
71640;BMP280;60912;48.968;10.124;2023-02-28T10:09:23;97308.16;;;2.92
71640;BMP280;60912;48.968;10.124;2023-02-28T10:11:52;97312.84;;;2.92
71640;BMP280;60912;48.968;10.124;2023-02-28T10:14:19;97325.22;;;3.08
71640;BMP280;60912;48.968;10.124;2023-02-28T10:16:59;97311.63;;;2.93
71640;BMP280;60912;48.968;10.124;2023-02-28T10:19:34;97310.03;;;2.86
71640;BMP280;60912;48.968;10.124;2023-02-28T10:22:05;97309.56;;;2.88
71640;BMP280;60912;48.968;10.124;2023-02-28T10:24:40;97306.06;;;3.02
71640;BMP280;60912;48.968;10.124;2023-02-28T10:27:17;97305.66;;;3.24
71640;BMP280;60912;48.968;10.124;2023-02-28T10:29:45;97317.91;;;2.99
71640;BMP280;60912;48.968;10.124;2023-02-28T10:32:16;97310.53;;;3.34
71640;BMP280;60912;48.968;10.124;2023-02-28T10:34:42;97315.47;;;3.65
71640;BMP280;60912;48.968;10.124;2023-02-28T10:37:09;97317.00;;;3.52
71640;BMP280;60912;48.968;10.124;2023-02-28T10:39:54;97312.97;;;3.32
71640;BMP280;60912;48.968;10.124;2023-02-28T10:42:21;97305.66;;;3.39
71640;BMP280;60912;48.968;10.124;2023-02-28T10:44:47;97310.78;;;3.16
71640;BMP280;60912;48.968;10.124;2023-02-28T10:47:17;97315.81;;;3.23
71640;BMP280;60912;48.968;10.124;2023-02-28T10:49:53;97322.16;;;3.15
71640;BMP280;60912;48.968;10.124;2023-02-28T10:52:39;97324.03;;;3.58
71640;BMP280;60912;48.968;10.124;2023-02-28T10:55:18;97326.63;;;3.67
71640;BMP280;60912;48.968;10.124;2023-02-28T10:57:44;97326.63;;;3.67
71640;BMP280;60912;48.968;10.124;2023-02-28T11:00:17;97323.50;;;3.95
71640;BMP280;60912;48.968;10.124;2023-02-28T11:02:43;97311.53;;;3.87
71640;BMP280;60912;48.968;10.124;2023-02-28T11:05:31;97323.28;;;4.13
71640;BMP280;60912;48.968;10.124;2023-02-28T11:08:10;97312.00;;;4.05
71640;BMP280;60912;48.968;10.124;2023-02-28T11:10:36;97314.09;;;3.96
71640;BMP280;60912;48.968;10.124;2023-02-28T11:13:02;97308.53;;;3.85
71640;BMP280;60912;48.968;10.124;2023-02-28T11:15:37;97306.34;;;3.68
71640;BMP280;60912;48.968;10.124;2023-02-28T11:20:33;97310.03;;;3.86
71640;BMP280;60912;48.968;10.124;2023-02-28T11:23:01;97301.44;;;3.93
71640;BMP280;60912;48.968;10.124;2023-02-28T11:25:32;97305.00;;;3.99
71640;BMP280;60912;48.968;10.124;2023-02-28T11:28:03;97296.00;;;4.13
71640;BMP280;60912;48.968;10.124;2023-02-28T11:30:38;97302.78;;;4.23
71640;BMP280;60912;48.968;10.124;2023-02-28T11:33:26;97303.69;;;4.35
71640;BMP280;60912;48.968;10.124;2023-02-28T11:35:55;97287.50;;;4.31
71640;BMP280;60912;48.968;10.124;2023-02-28T11:38:28;97302.22;;;4.39
71640;BMP280;60912;48.968;10.124;2023-02-28T11:46:20;97297.31;;;4.43
71640;BMP280;60912;48.968;10.124;2023-02-28T11:51:47;97291.09;;;4.69
71640;BMP280;60912;48.968;10.124;2023-02-28T11:54:27;97300.69;;;4.59
71640;BMP280;60912;48.968;10.124;2023-02-28T11:57:00;97292.94;;;4.52
71640;BMP280;60912;48.968;10.124;2023-02-28T12:05:24;97301.72;;;4.87
71640;BMP280;60912;48.968;10.124;2023-02-28T12:11:04;97293.69;;;4.78
71640;BMP280;60912;48.968;10.124;2023-02-28T12:17:25;97296.72;;;4.54
71640;BMP280;60912;48.968;10.124;2023-02-28T12:22:43;97290.56;;;4.39
71640;BMP280;60912;48.968;10.124;2023-02-28T12:25:18;97300.84;;;4.49
71640;BMP280;60912;48.968;10.124;2023-02-28T12:27:47;97298.06;;;4.44
71640;BMP280;60912;48.968;10.124;2023-02-28T12:30:17;97297.00;;;4.36
71640;BMP280;60912;48.968;10.124;2023-02-28T12:33:05;97304.38;;;4.56
71640;BMP280;60912;48.968;10.124;2023-02-28T12:35:43;97304.16;;;4.33
71640;BMP280;60912;48.968;10.124;2023-02-28T12:38:23;97294.94;;;4.31
71640;BMP280;60912;48.968;10.124;2023-02-28T12:41:00;97305.53;;;4.23
71640;BMP280;60912;48.968;10.124;2023-02-28T12:43:33;97286.16;;;4.21
71640;BMP280;60912;48.968;10.124;2023-02-28T12:46:03;97282.44;;;4.44
71640;BMP280;60912;48.968;10.124;2023-02-28T12:51:08;97297.47;;;4.60
71640;BMP280;60912;48.968;10.124;2023-02-28T12:53:55;97290.50;;;4.59
71640;BMP280;60912;48.968;10.124;2023-02-28T12:59:10;97294.38;;;4.73
71640;BMP280;60912;48.968;10.124;2023-02-28T13:09:32;97286.34;;;4.64
71640;BMP280;60912;48.968;10.124;2023-02-28T13:11:58;97272.97;;;4.66
71640;BMP280;60912;48.968;10.124;2023-02-28T13:14:29;97275.63;;;4.55
71640;BMP280;60912;48.968;10.124;2023-02-28T13:19:28;97271.75;;;4.67
71640;BMP280;60912;48.968;10.124;2023-02-28T13:21:55;97268.31;;;4.72
71640;BMP280;60912;48.968;10.124;2023-02-28T13:29:51;97272.34;;;4.82
71640;BMP280;60912;48.968;10.124;2023-02-28T13:32:30;97278.03;;;4.78
71640;BMP280;60912;48.968;10.124;2023-02-28T13:40:30;97277.47;;;5.00
71640;BMP280;60912;48.968;10.124;2023-02-28T13:43:02;97277.41;;;4.89
71640;BMP280;60912;48.968;10.124;2023-02-28T13:45:28;97277.69;;;4.97
71640;BMP280;60912;48.968;10.124;2023-02-28T13:48:15;97262.03;;;4.97
71640;BMP280;60912;48.968;10.124;2023-02-28T13:50:42;97275.09;;;5.13
71640;BMP280;60912;48.968;10.124;2023-02-28T13:56:07;97279.31;;;5.14
71640;BMP280;60912;48.968;10.124;2023-02-28T14:01:41;97258.00;;;5.18
71640;BMP280;60912;48.968;10.124;2023-02-28T14:06:59;97256.09;;;5.36
71640;BMP280;60912;48.968;10.124;2023-02-28T14:11:54;97262.66;;;5.12
71640;BMP280;60912;48.968;10.124;2023-02-28T14:17:06;97256.06;;;4.93
71640;BMP280;60912;48.968;10.124;2023-02-28T14:19:34;97254.13;;;4.99
71640;BMP280;60912;48.968;10.124;2023-02-28T14:25:34;97266.94;;;5.19
71640;BMP280;60912;48.968;10.124;2023-02-28T14:28:25;97249.53;;;5.16
71640;BMP280;60912;48.968;10.124;2023-02-28T14:31:06;97246.38;;;4.92
71640;BMP280;60912;48.968;10.124;2023-02-28T14:34:03;97258.75;;;4.87
71640;BMP280;60912;48.968;10.124;2023-02-28T14:36:34;97251.59;;;4.90
71640;BMP280;60912;48.968;10.124;2023-02-28T14:39:05;97256.84;;;4.99
71640;BMP280;60912;48.968;10.124;2023-02-28T14:41:47;97250.97;;;5.12
71640;BMP280;60912;48.968;10.124;2023-02-28T14:44:26;97270.84;;;5.12
71640;BMP280;60912;48.968;10.124;2023-02-28T14:47:11;97271.84;;;4.78
71640;BMP280;60912;48.968;10.124;2023-02-28T14:49:50;97268.16;;;4.81
71640;BMP280;60912;48.968;10.124;2023-02-28T14:52:38;97263.59;;;4.72
71640;BMP280;60912;48.968;10.124;2023-02-28T14:55:18;97269.16;;;4.58
71640;BMP280;60912;48.968;10.124;2023-02-28T14:57:58;97263.81;;;4.69
71640;BMP280;60912;48.968;10.124;2023-02-28T15:00:30;97268.47;;;4.94
71640;BMP280;60912;48.968;10.124;2023-02-28T15:03:20;97275.19;;;4.93
71640;BMP280;60912;48.968;10.124;2023-02-28T15:06:03;97273.53;;;4.75
71640;BMP280;60912;48.968;10.124;2023-02-28T15:14:36;97270.44;;;4.88
71640;BMP280;60912;48.968;10.124;2023-02-28T15:17:21;97272.91;;;4.86
71640;BMP280;60912;48.968;10.124;2023-02-28T15:19:51;97278.66;;;4.94
71640;BMP280;60912;48.968;10.124;2023-02-28T15:22:22;97276.41;;;4.92
71640;BMP280;60912;48.968;10.124;2023-02-28T15:24:56;97275.09;;;4.82
71640;BMP280;60912;48.968;10.124;2023-02-28T15:27:23;97277.69;;;4.97
71640;BMP280;60912;48.968;10.124;2023-02-28T15:29:59;97264.16;;;4.82
71640;BMP280;60912;48.968;10.124;2023-02-28T15:33:01;97272.00;;;4.69
71640;BMP280;60912;48.968;10.124;2023-02-28T15:35:38;97273.09;;;4.57
71640;BMP280;60912;48.968;10.124;2023-02-28T15:40:46;97275.09;;;4.56
71640;BMP280;60912;48.968;10.124;2023-02-28T15:43:32;97279.38;;;4.63
71640;BMP280;60912;48.968;10.124;2023-02-28T15:46:04;97271.09;;;4.52
71640;BMP280;60912;48.968;10.124;2023-02-28T15:54:32;97283.06;;;4.60
71640;BMP280;60912;48.968;10.124;2023-02-28T15:57:30;97281.09;;;4.55
71640;BMP280;60912;48.968;10.124;2023-02-28T16:00:19;97279.97;;;4.46
71640;BMP280;60912;48.968;10.124;2023-02-28T16:02:49;97274.91;;;4.34
71640;BMP280;60912;48.968;10.124;2023-02-28T16:05:34;97275.22;;;4.41
71640;BMP280;60912;48.968;10.124;2023-02-28T16:08:59;97281.91;;;4.40
71640;BMP280;60912;48.968;10.124;2023-02-28T16:12:25;97281.44;;;4.42
71640;BMP280;60912;48.968;10.124;2023-02-28T17:22:19;97327.91;;;3.52
71640;BMP280;60912;48.968;10.124;2023-02-28T17:35:41;97341.09;;;3.24
71640;BMP280;60912;48.968;10.124;2023-02-28T17:39:15;97347.75;;;3.23
71640;BMP280;60912;48.968;10.124;2023-02-28T17:42:16;97352.94;;;3.21
71640;BMP280;60912;48.968;10.124;2023-02-28T17:45:00;97356.84;;;3.05
71640;BMP280;60912;48.968;10.124;2023-02-28T17:51:01;97364.47;;;2.86
71640;BMP280;60912;48.968;10.124;2023-02-28T18:02:05;97347.25;;;2.66
71640;BMP280;60912;48.968;10.124;2023-02-28T18:04:50;97357.66;;;2.67
71640;BMP280;60912;48.968;10.124;2023-02-28T18:07:30;97354.66;;;2.65
71640;BMP280;60912;48.968;10.124;2023-02-28T18:10:32;97347.16;;;2.60
71640;BMP280;60912;48.968;10.124;2023-02-28T18:13:16;97361.81;;;2.63
71640;BMP280;60912;48.968;10.124;2023-02-28T18:18:55;97351.72;;;2.54
71640;BMP280;60912;48.968;10.124;2023-02-28T18:21:48;97358.97;;;2.57
71640;BMP280;60912;48.968;10.124;2023-02-28T18:24:51;97354.44;;;2.54
71640;BMP280;60912;48.968;10.124;2023-02-28T18:27:51;97354.97;;;2.43
71640;BMP280;60912;48.968;10.124;2023-02-28T18:43:02;97347.22;;;2.12
71640;BMP280;60912;48.968;10.124;2023-02-28T18:51:08;97353.19;;;1.93
71640;BMP280;60912;48.968;10.124;2023-02-28T18:54:11;97352.63;;;1.89
71640;BMP280;60912;48.968;10.124;2023-02-28T18:57:27;97359.06;;;1.91
71640;BMP280;60912;48.968;10.124;2023-02-28T19:04:00;97342.19;;;1.87
71640;BMP280;60912;48.968;10.124;2023-02-28T19:07:06;97350.16;;;1.91
71640;BMP280;60912;48.968;10.124;2023-02-28T19:13:59;97340.59;;;1.80
71640;BMP280;60912;48.968;10.124;2023-02-28T19:17:07;97344.66;;;1.85
71640;BMP280;60912;48.968;10.124;2023-02-28T19:26:45;97346.38;;;1.73